Time;durP1;ratioP1;P1;durP2;ratioP2;P2;SDS_P1;SDS_P2;PMS_P1;PMS_P2;Temp;Humidity;BMP_temperature;BMP_pressure;BME280_temperature;BME280_humidity;BME280_pressure;Samples;Min_cycle;Max_cycle;Signal;HPM_P1;HPM_P2
2023/12/28 00:01:50;;;;;;;2.40;1.40;;;;;;;;;;5069907;28;20020;-78
2023/12/28 00:04:41;;;;;;;3.60;1.23;;;;;;;;;;5083218;28;20020;-78
2023/12/28 00:10:19;;;;;;;3.93;1.83;;;;;;;;;;5085229;28;20044;-78
2023/12/28 00:13:08;;;;;;;4.43;1.50;;;;;;;;;;5091073;28;20036;-77
2023/12/28 00:15:51;;;;;;;3.30;2.13;;;;;;;;;;5093640;28;20009;-77
2023/12/28 00:18:45;;;;;;;3.93;1.23;;;;;;;;;;5076634;28;20020;-77
2023/12/28 00:24:48;;;;;;;2.90;1.23;;;;;;;;;;5058349;28;20048;-78
2023/12/28 00:27:33;;;;;;;4.53;1.43;;;;;;;;;;5088518;28;20251;-77
2023/12/28 00:30:22;;;;;;;;;;;;;;;;;;;;;
2023/12/28 00:36:10;;;;;;;;;;;;;;;;;;;;;
2023/12/28 00:38:58;;;;;;;1.80;0.93;;;;;;;;;;5092520;28;20064;-78
2023/12/28 00:41:26;;;;;;;2.50;1.13;;;;;;;;;;5089688;28;20037;-78
2023/12/28 00:43:58;;;;;;;4.43;1.50;;;;;;;;;;5133611;22;20024;-77
2023/12/28 00:46:48;;;;;;;;;;;;;;;;;;;;;
2023/12/28 00:55:55;;;;;;;2.37;1.60;;;;;;;;;;5050519;28;20024;-78
2023/12/28 01:01:41;;;;;;;2.77;1.47;;;;;;;;;;5089066;28;20032;-78
2023/12/28 01:04:17;;;;;;;4.97;1.10;;;;;;;;;;5108887;28;20029;-78
2023/12/28 01:07:01;;;;;;;;;;;;;;;;;;;;;
2023/12/28 01:16:39;;;;;;;3.43;1.30;;;;;;;;;;5082594;28;20017;-78
2023/12/28 01:19:27;;;;;;;;;;;;;;;;;;;;;
2023/12/28 01:22:17;;;;;;;3.60;1.00;;;;;;;;;;5090035;28;20043;-78
2023/12/28 01:25:28;;;;;;;3.63;1.40;;;;;;;;;;5090830;28;20017;-78
2023/12/28 01:31:20;;;;;;;;;;;;;;;;;;;;;
2023/12/28 01:33:54;;;;;;;4.27;1.47;;;;;;;;;;5096989;28;20051;-78
2023/12/28 01:39:21;;;;;;;1.43;0.70;;;;;;;;;;5083571;28;20036;-77
2023/12/28 01:42:08;;;;;;;1.57;0.67;;;;;;;;;;5096123;28;20063;-77
2023/12/28 01:44:47;;;;;;;1.40;0.70;;;;;;;;;;5094100;28;20048;-78
2023/12/28 01:47:25;;;;;;;;;;;;;;;;;;;;;
2023/12/28 01:50:00;;;;;;;1.60;0.80;;;;;;;;;;5097333;28;20044;-77
2023/12/28 01:52:38;;;;;;;1.80;1.00;;;;;;;;;;5097604;28;20017;-77
2023/12/28 01:55:27;;;;;;;1.63;0.90;;;;;;;;;;5094652;28;20013;-78
2023/12/28 01:58:21;;;;;;;1.17;0.87;;;;;;;;;;5063340;28;20020;-77
2023/12/28 02:01:27;;;;;;;;;;;;;;;;;;;;;
2023/12/28 02:04:14;;;;;;;;;;;;;;;;;;;;;
2023/12/28 02:09:35;;;;;;;1.77;0.90;;;;;;;;;;5079131;28;20015;-77
2023/12/28 02:12:01;;;;;;;2.87;0.73;;;;;;;;;;5092505;28;20225;-77
2023/12/28 02:14:48;;;;;;;1.57;0.53;;;;;;;;;;5093531;28;20017;-78
2023/12/28 02:17:24;;;;;;;1.97;1.10;;;;;;;;;;5096266;28;20024;-78
2023/12/28 02:20:19;;;;;;;2.77;0.53;;;;;;;;;;5110482;28;20028;-78
2023/12/28 02:22:48;;;;;;;1.60;0.80;;;;;;;;;;5096660;28;20125;-78
2023/12/28 02:25:14;;;;;;;2.83;0.90;;;;;;;;;;5092198;28;20021;-77
2023/12/28 02:27:50;;;;;;;1.37;0.60;;;;;;;;;;5096490;28;20043;-78
2023/12/28 02:30:34;;;;;;;1.40;0.77;;;;;;;;;;5096010;28;20013;-77
2023/12/28 02:33:18;;;;;;;0.83;0.47;;;;;;;;;;5095936;28;20016;-78
2023/12/28 02:35:48;;;;;;;1.93;0.80;;;;;;;;;;5096758;28;20028;-78
2023/12/28 02:38:25;;;;;;;;;;;;;;;;;;;;;
2023/12/28 02:40:55;;;;;;;1.47;0.60;;;;;;;;;;5095996;28;20061;-78
2023/12/28 02:43:24;;;;;;;1.10;0.70;;;;;;;;;;5094307;28;20016;-77
2023/12/28 02:45:50;;;;;;;1.13;0.83;;;;;;;;;;5171868;22;20040;-78
2023/12/28 02:48:26;;;;;;;0.53;0.50;;;;;;;;;;5108915;28;20088;-77
2023/12/28 02:51:10;;;;;;;0.87;0.50;;;;;;;;;;5110314;28;20008;-78
2023/12/28 02:56:24;;;;;;;0.90;0.60;;;;;;;;;;5092543;28;20017;-78
2023/12/28 02:59:03;;;;;;;1.03;0.50;;;;;;;;;;5109437;28;20138;-78
2023/12/28 03:01:32;;;;;;;0.83;0.60;;;;;;;;;;5115368;27;20039;-82
2023/12/28 03:03:58;;;;;;;1.50;0.80;;;;;;;;;;5101214;28;20020;-78
2023/12/28 03:06:24;;;;;;;1.37;0.50;;;;;;;;;;5100834;28;20020;-78
2023/12/28 03:15:46;;;;;;;2.73;0.77;;;;;;;;;;5191662;22;20047;-78
2023/12/28 03:18:38;;;;;;;;;;;;;;;;;;;;;
2023/12/28 03:21:25;;;;;;;1.37;0.90;;;;;;;;;;5136647;28;20044;-78
2023/12/28 03:24:03;;;;;;;2.30;1.17;;;;;;;;;;5131038;28;20022;-78
2023/12/28 03:26:39;;;;;;;1.77;0.97;;;;;;;;;;5151995;27;20038;-78
2023/12/28 03:29:34;;;;;;;1.60;0.83;;;;;;;;;;5151231;27;20031;-78
2023/12/28 03:32:33;;;;;;;2.50;0.90;;;;;;;;;;5130698;28;20069;-78
2023/12/28 03:35:11;;;;;;;;;;;;;;;;;;;;;
2023/12/28 03:37:40;;;;;;;4.93;1.40;;;;;;;;;;5132619;28;20046;-77
2023/12/28 03:40:51;;;;;;;2.57;1.07;;;;;;;;;;5134029;28;20208;-77
2023/12/28 03:43:28;;;;;;;3.10;1.07;;;;;;;;;;5133581;27;20024;-78
2023/12/28 03:48:53;;;;;;;1.77;1.10;;;;;;;;;;5128393;28;20087;-77
2023/12/28 03:51:39;;;;;;;1.70;0.87;;;;;;;;;;5133676;28;20024;-77
2023/12/28 03:54:33;;;;;;;5.43;1.10;;;;;;;;;;5133796;28;20012;-77
2023/12/28 03:57:11;;;;;;;1.60;0.90;;;;;;;;;;5131553;28;20048;-77
2023/12/28 03:59:48;;;;;;;1.23;0.83;;;;;;;;;;5133890;28;20051;-77
2023/12/28 04:02:17;;;;;;;2.77;1.40;;;;;;;;;;5134224;28;20036;-78
2023/12/28 04:04:45;;;;;;;2.07;0.87;;;;;;;;;;5133913;27;20057;-77
2023/12/28 04:07:18;;;;;;;1.13;0.77;;;;;;;;;;5134400;28;20103;-77
2023/12/28 04:09:47;;;;;;;1.57;0.80;;;;;;;;;;5133787;28;20022;-77
2023/12/28 04:12:37;;;;;;;1.80;1.00;;;;;;;;;;5134295;28;20051;-78
2023/12/28 04:15:07;;;;;;;1.73;1.27;;;;;;;;;;5130377;28;20067;-77
2023/12/28 04:17:53;;;;;;;1.90;0.80;;;;;;;;;;5138179;27;20043;-77
2023/12/28 04:20:21;;;;;;;2.13;0.80;;;;;;;;;;5133847;28;20030;-78
2023/12/28 04:23:07;;;;;;;1.90;0.93;;;;;;;;;;5133454;28;20020;-78
2023/12/28 04:25:43;;;;;;;;;;;;;;;;;;;;;
2023/12/28 04:28:40;;;;;;;;;;;;;;;;;;;;;
2023/12/28 04:31:07;;;;;;;2.43;1.23;;;;;;;;;;5133417;28;20031;-78
2023/12/28 04:33:35;;;;;;;3.57;1.10;;;;;;;;;;5132584;28;20016;-77
2023/12/28 04:36:24;;;;;;;5.00;1.20;;;;;;;;;;5145014;27;20030;-78
2023/12/28 04:41:53;;;;;;;2.50;1.30;;;;;;;;;;5134930;28;20063;-77
2023/12/28 04:44:29;;;;;;;3.60;1.50;;;;;;;;;;5140593;27;20031;-77
2023/12/28 04:47:02;;;;;;;2.80;1.00;;;;;;;;;;5142011;27;20035;-78
2023/12/28 04:52:15;;;;;;;4.47;1.27;;;;;;;;;;5128314;28;20015;-77
2023/12/28 04:54:53;;;;;;;;;;;;;;;;;;;;;
2023/12/28 04:57:27;;;;;;;1.77;1.07;;;;;;;;;;5139233;28;20035;-77
2023/12/28 05:00:19;;;;;;;3.73;1.33;;;;;;;;;;5126859;27;20031;-77
2023/12/28 05:02:55;;;;;;;2.67;0.90;;;;;;;;;;5138739;28;20019;-79
2023/12/28 05:11:29;;;;;;;;;;;;;;;;;;;;;
2023/12/28 05:13:56;;;;;;;2.67;1.42;;;;;;;;;;5131388;28;20023;-78
2023/12/28 05:16:45;;;;;;;4.43;1.83;;;;;;;;;;5128425;27;20020;-78
2023/12/28 05:19:22;;;;;;;5.17;1.57;;;;;;;;;;5123773;28;20042;-78
2023/12/28 05:25:51;;;;;;;;;;;;;;;;;;;;;
2023/12/28 05:31:15;;;;;;;2.97;1.30;;;;;;;;;;5090789;28;20035;-77
2023/12/28 05:36:29;;;;;;;3.63;1.70;;;;;;;;;;5132506;28;20098;-78
2023/12/28 05:38:57;;;;;;;3.67;1.80;;;;;;;;;;5134333;28;20036;-77
2023/12/28 05:41:33;;;;;;;2.70;1.43;;;;;;;;;;5138360;28;20004;-78
2023/12/28 05:44:22;;;;;;;4.37;1.20;;;;;;;;;;5134333;28;20016;-78
2023/12/28 05:49:54;;;;;;;2.78;1.40;;;;;;;;;;5135205;28;20027;-77
2023/12/28 05:52:53;;;;;;;2.80;1.40;;;;;;;;;;5138063;28;20031;-77
2023/12/28 05:55:26;;;;;;;5.70;1.80;;;;;;;;;;5135466;27;20016;-78
2023/12/28 05:58:30;;;;;;;4.03;1.47;;;;;;;;;;5138596;27;20039;-78
2023/12/28 06:01:05;;;;;;;4.40;1.83;;;;;;;;;;5136002;27;20012;-77
2023/12/28 06:07:06;;;;;;;4.70;1.63;;;;;;;;;;5125655;28;20072;-78
2023/12/28 06:09:52;;;;;;;5.20;1.47;;;;;;;;;;5130465;27;20034;-77
2023/12/28 06:12:36;;;;;;;2.27;1.20;;;;;;;;;;5126194;28;20012;-78
2023/12/28 06:15:09;;;;;;;3.73;1.40;;;;;;;;;;5131873;28;20035;-78
2023/12/28 06:17:38;;;;;;;5.27;1.83;;;;;;;;;;5133796;27;20016;-78
2023/12/28 06:20:08;;;;;;;4.33;1.80;;;;;;;;;;5134073;28;20042;-77
2023/12/28 06:22:42;;;;;;;3.60;1.40;;;;;;;;;;5135662;28;20020;-78
2023/12/28 06:25:16;;;;;;;4.70;1.20;;;;;;;;;;5134028;28;20055;-77
2023/12/28 06:27:44;;;;;;;4.87;1.77;;;;;;;;;;5136498;28;20039;-78
2023/12/28 06:30:15;;;;;;;3.37;1.27;;;;;;;;;;5135476;28;20035;-77
2023/12/28 06:32:50;;;;;;;2.83;1.80;;;;;;;;;;5135724;28;20019;-77
2023/12/28 06:35:18;;;;;;;6.90;1.37;;;;;;;;;;5135867;28;20019;-78
2023/12/28 06:37:54;;;;;;;3.17;1.43;;;;;;;;;;5134806;28;20034;-78
2023/12/28 06:40:20;;;;;;;4.47;1.43;;;;;;;;;;5135383;28;20039;-78
2023/12/28 06:42:49;;;;;;;5.17;1.60;;;;;;;;;;5135001;28;20016;-77
2023/12/28 06:45:35;;;;;;;4.50;1.20;;;;;;;;;;5151893;27;20020;-78
2023/12/28 06:48:03;;;;;;;3.07;1.43;;;;;;;;;;5135588;27;20011;-77
2023/12/28 06:50:34;;;;;;;6.10;1.67;;;;;;;;;;5136593;27;20030;-78
2023/12/28 06:53:09;;;;;;;3.73;1.00;;;;;;;;;;5136958;27;20027;-77
2023/12/28 06:55:35;;;;;;;5.80;1.80;;;;;;;;;;5136456;27;20015;-78
2023/12/28 06:58:03;;;;;;;6.57;1.40;;;;;;;;;;5135186;27;20028;-77
2023/12/28 07:00:31;;;;;;;4.30;1.30;;;;;;;;;;5135383;27;20020;-78
2023/12/28 07:03:02;;;;;;;6.90;1.63;;;;;;;;;;5136052;27;20052;-77
2023/12/28 07:05:31;;;;;;;5.03;1.30;;;;;;;;;;5135005;27;20035;-77
2023/12/28 07:08:07;;;;;;;4.43;1.33;;;;;;;;;;5137340;27;20031;-78
2023/12/28 07:11:03;;;;;;;4.13;1.00;;;;;;;;;;5135800;27;20027;-79
2023/12/28 07:16:15;;;;;;;2.90;1.60;;;;;;;;;;5098436;22;20104;-78
2023/12/28 07:19:04;;;;;;;4.87;1.63;;;;;;;;;;5072692;28;20020;-78
2023/12/28 07:21:32;;;;;;;4.77;1.53;;;;;;;;;;5079060;28;20020;-77
2023/12/28 07:24:17;;;;;;;4.33;1.47;;;;;;;;;;5077671;28;20016;-77
2023/12/28 07:26:53;;;;;;;3.93;1.40;;;;;;;;;;5077612;28;20113;-77
2023/12/28 07:29:24;;;;;;;4.87;1.70;;;;;;;;;;5072434;28;20021;-77
2023/12/28 07:32:11;;;;;;;4.80;1.63;;;;;;;;;;5077282;28;20309;-78
2023/12/28 07:34:38;;;;;;;5.60;1.50;;;;;;;;;;5093752;28;20025;-78
2023/12/28 07:37:13;;;;;;;5.50;1.67;;;;;;;;;;5076729;28;20020;-77
2023/12/28 07:39:42;;;;;;;3.13;1.23;;;;;;;;;;5077784;28;20051;-77
2023/12/28 07:42:25;;;;;;;;;;;;;;;;;;;;;
2023/12/28 07:44:59;;;;;;;3.65;1.48;;;;;;;;;;5094739;28;20035;-78
2023/12/28 07:47:27;;;;;;;7.10;1.60;;;;;;;;;;5077115;28;20052;-78
2023/12/28 07:50:05;;;;;;;6.20;1.60;;;;;;;;;;5077067;28;20050;-77
2023/12/28 07:52:43;;;;;;;6.77;1.50;;;;;;;;;;5066555;28;20112;-77
2023/12/28 07:55:18;;;;;;;5.63;1.70;;;;;;;;;;5076746;28;20024;-78
2023/12/28 07:57:45;;;;;;;6.80;1.30;;;;;;;;;;5077638;28;20013;-77
2023/12/28 08:00:11;;;;;;;5.23;1.80;;;;;;;;;;5077345;28;20025;-78
2023/12/28 08:03:05;;;;;;;4.73;1.33;;;;;;;;;;5093804;28;20110;-77
2023/12/28 08:05:39;;;;;;;8.03;2.47;;;;;;;;;;5076853;28;20023;-77
2023/12/28 08:08:07;;;;;;;6.00;1.43;;;;;;;;;;5076722;28;20029;-78
2023/12/28 08:10:35;;;;;;;7.13;1.90;;;;;;;;;;5076042;28;20042;-78
2023/12/28 08:13:24;;;;;;;5.17;1.50;;;;;;;;;;5094632;28;20028;-78
2023/12/28 08:15:55;;;;;;;3.37;1.53;;;;;;;;;;5073426;28;20276;-78
2023/12/28 08:18:32;;;;;;;5.97;1.93;;;;;;;;;;5076501;28;20213;-78
2023/12/28 08:21:00;;;;;;;5.67;1.60;;;;;;;;;;5071994;28;20016;-78
2023/12/28 08:23:29;;;;;;;1.93;1.23;;;;;;;;;;5094791;28;20102;-78
2023/12/28 08:26:15;;;;;;;8.57;1.67;;;;;;;;;;5076917;28;20024;-78
2023/12/28 08:28:50;;;;;;;6.07;1.50;;;;;;;;;;5094042;28;20093;-78
2023/12/28 08:31:29;;;;;;;5.10;1.43;;;;;;;;;;5094904;28;20042;-78
2023/12/28 08:34:18;;;;;;;2.20;1.10;;;;;;;;;;5076669;28;20017;-77
2023/12/28 08:36:47;;;;;;;4.53;1.60;;;;;;;;;;5093958;28;20021;-77
2023/12/28 08:39:13;;;;;;;4.00;1.30;;;;;;;;;;5072147;28;20037;-78
2023/12/28 08:42:03;;;;;;;7.37;1.73;;;;;;;;;;5075623;28;20005;-78
2023/12/28 08:44:40;;;;;;;5.87;1.90;;;;;;;;;;5092285;28;20031;-78
2023/12/28 08:47:17;;;;;;;5.30;1.77;;;;;;;;;;5076035;28;20041;-77
2023/12/28 08:49:45;;;;;;;3.00;1.30;;;;;;;;;;5077064;28;20096;-78
2023/12/28 08:52:24;;;;;;;;;;;;;;;;;;;;;
2023/12/28 08:55:11;;;;;;;8.47;1.63;;;;;;;;;;5093845;28;20036;-77
2023/12/28 08:57:48;;;;;;;5.10;1.77;;;;;;;;;;5076844;28;20043;-77
2023/12/28 09:00:21;;;;;;;6.70;2.00;;;;;;;;;;5092631;28;20039;-78
2023/12/28 09:02:50;;;;;;;4.53;1.53;;;;;;;;;;5071490;28;20016;-77
2023/12/28 09:05:25;;;;;;;4.83;1.87;;;;;;;;;;5075734;28;20009;-78
2023/12/28 09:07:54;;;;;;;5.47;1.60;;;;;;;;;;5074272;28;20099;-77
2023/12/28 09:10:27;;;;;;;8.63;2.10;;;;;;;;;;5090407;28;20024;-77
2023/12/28 09:12:56;;;;;;;6.17;2.17;;;;;;;;;;5075850;28;20039;-79
2023/12/28 09:15:24;;;;;;;9.63;2.23;;;;;;;;;;5245084;22;20048;-79
2023/12/28 09:17:58;;;;;;;7.50;1.97;;;;;;;;;;5110257;28;20077;-78
2023/12/28 09:23:10;;;;;;;7.80;2.43;;;;;;;;;;5111250;28;20016;-78
2023/12/28 09:25:46;;;;;;;6.93;2.10;;;;;;;;;;5110770;28;20028;-78
2023/12/28 09:28:13;;;;;;;6.27;2.00;;;;;;;;;;5129869;27;20016;-79
2023/12/28 09:30:39;;;;;;;6.43;1.73;;;;;;;;;;5112278;28;20012;-79
2023/12/28 09:33:07;;;;;;;10.07;1.90;;;;;;;;;;5110597;28;20015;-79
2023/12/28 09:35:44;;;;;;;;;;;;;;;;;;;;;
2023/12/28 09:38:17;;;;;;;9.00;1.77;;;;;;;;;;5112718;28;20032;-79
2023/12/28 09:40:44;;;;;;;9.33;1.63;;;;;;;;;;5111868;28;20024;-78
2023/12/28 09:43:24;;;;;;;6.80;2.00;;;;;;;;;;5127680;27;20032;-79
2023/12/28 09:46:00;;;;;;;6.17;1.40;;;;;;;;;;5127950;27;20026;-78
2023/12/28 09:48:29;;;;;;;8.07;1.87;;;;;;;;;;5108697;28;20027;-78
2023/12/28 09:50:59;;;;;;;11.30;1.23;;;;;;;;;;5111634;27;20157;-77
2023/12/28 09:53:30;;;;;;;8.53;1.40;;;;;;;;;;5112210;28;20020;-78
2023/12/28 09:55:58;;;;;;;10.20;2.10;;;;;;;;;;5132997;27;20020;-77
2023/12/28 09:58:32;;;;;;;5.93;1.90;;;;;;;;;;5115743;27;20024;-77
2023/12/28 10:01:09;;;;;;;8.47;2.03;;;;;;;;;;5131667;27;20017;-77
2023/12/28 10:06:30;;;;;;;10.50;3.27;;;;;;;;;;5117248;28;20016;-77
2023/12/28 10:09:18;;;;;;;3.33;1.57;;;;;;;;;;5116829;28;20026;-77
2023/12/28 10:12:22;;;;;;;6.30;1.97;;;;;;;;;;5106062;28;20039;-77
2023/12/28 10:15:11;;;;;;;13.37;1.80;;;;;;;;;;5130149;27;20080;-77
2023/12/28 10:17:41;;;;;;;6.20;2.23;;;;;;;;;;5114135;28;20015;-77
2023/12/28 10:20:15;;;;;;;19.10;2.17;;;;;;;;;;5132147;27;20040;-77
2023/12/28 10:22:44;;;;;;;9.73;3.00;;;;;;;;;;5131336;27;20119;-77
2023/12/28 10:25:18;;;;;;;11.07;2.47;;;;;;;;;;5115133;28;20039;-77
2023/12/28 10:27:52;;;;;;;10.70;2.23;;;;;;;;;;5114289;28;20067;-77
2023/12/28 10:30:25;;;;;;;7.80;2.03;;;;;;;;;;5118328;27;20054;-78
2023/12/28 10:33:10;;;;;;;6.87;1.90;;;;;;;;;;5115239;28;20055;-79
2023/12/28 10:35:49;;;;;;;8.03;1.80;;;;;;;;;;5102927;28;20025;-77
2023/12/28 10:38:19;;;;;;;5.87;1.60;;;;;;;;;;5116767;28;20047;-78
2023/12/28 10:40:48;;;;;;;7.27;1.33;;;;;;;;;;5131639;22;20066;-78
2023/12/28 10:43:20;;;;;;;7.87;1.73;;;;;;;;;;5140469;27;20038;-77
2023/12/28 10:45:52;;;;;;;6.95;1.73;;;;;;;;;;5154111;27;20031;-77
2023/12/28 10:48:22;;;;;;;6.20;1.38;;;;;;;;;;5139174;27;20016;-77
2023/12/28 10:53:59;;;;;;;9.70;1.90;;;;;;;;;;5131263;27;20015;-77
2023/12/28 10:56:31;;;;;;;7.40;1.50;;;;;;;;;;5135424;28;20016;-77
2023/12/28 10:59:03;;;;;;;6.57;1.67;;;;;;;;;;5135102;27;20051;-77
2023/12/28 11:01:34;;;;;;;10.18;1.75;;;;;;;;;;5140063;27;20016;-78
2023/12/28 11:04:26;;;;;;;8.50;1.63;;;;;;;;;;5130783;27;20008;-78
2023/12/28 11:07:00;;;;;;;8.77;1.50;;;;;;;;;;5131862;28;20024;-78
2023/12/28 11:09:48;;;;;;;8.03;1.00;;;;;;;;;;5141083;27;20022;-78
2023/12/28 11:12:18;;;;;;;6.43;1.60;;;;;;;;;;5137245;28;20035;-77
2023/12/28 11:14:58;;;;;;;;;;;;;;;;;;;;;
2023/12/28 11:17:27;;;;;;;8.27;1.87;;;;;;;;;;5121036;28;20008;-77
2023/12/28 11:20:06;;;;;;;;;;;;;;;;;;;;;
2023/12/28 11:22:42;;;;;;;5.03;1.20;;;;;;;;;;5121170;28;20004;-78
2023/12/28 11:25:25;;;;;;;12.90;1.83;;;;;;;;;;5133946;27;20017;-78
2023/12/28 11:27:53;;;;;;;;;;;;;;;;;;5121068;28;20007;-77
2023/12/28 11:30:26;;;;;;;6.37;1.43;;;;;;;;;;5119803;28;19967;-77
2023/12/28 11:33:13;;;;;;;6.70;1.57;;;;;;;;;;5120355;27;20012;-77
2023/12/28 11:36:01;;;;;;;6.40;1.33;;;;;;;;;;5119410;28;20076;-77
2023/12/28 11:38:35;;;;;;;14.00;1.60;;;;;;;;;;5127424;27;20028;-78
2023/12/28 11:41:07;;;;;;;5.50;1.40;;;;;;;;;;5114058;28;20016;-78
2023/12/28 11:43:49;;;;;;;10.52;1.58;;;;;;;;;;5120429;28;20031;-78
2023/12/28 11:46:34;;;;;;;;;;;;;;;;;;;;;
2023/12/28 11:49:16;;;;;;;6.67;1.23;;;;;;;;;;5114481;28;20024;-77
2023/12/28 11:51:45;;;;;;;4.55;1.20;;;;;;;;;;5123602;27;20025;-77
2023/12/28 11:54:19;;;;;;;7.03;1.50;;;;;;;;;;5114638;28;20071;-78
2023/12/28 11:56:45;;;;;;;5.33;1.43;;;;;;;;;;5113215;28;20008;-77
2023/12/28 11:59:20;;;;;;;4.63;1.57;;;;;;;;;;5117005;28;20071;-78
2023/12/28 12:01:55;;;;;;;7.20;1.40;;;;;;;;;;5119138;27;20023;-77
2023/12/28 12:04:26;;;;;;;4.37;1.20;;;;;;;;;;5118886;27;20088;-77
2023/12/28 12:06:54;;;;;;;9.57;2.07;;;;;;;;;;5119022;27;20016;-77
2023/12/28 12:09:25;;;;;;;7.67;2.00;;;;;;;;;;5119961;27;20040;-77
2023/12/28 12:12:02;;;;;;;;;;;;;;;;;;;;;
2023/12/28 12:14:31;;;;;;;6.10;1.00;;;;;;;;;;5116788;28;20016;-79
2023/12/28 12:17:00;;;;;;;4.63;1.23;;;;;;;;;;5118412;28;20008;-77
2023/12/28 12:19:32;;;;;;;7.20;1.57;;;;;;;;;;5108170;28;20020;-78
2023/12/28 12:22:19;;;;;;;5.45;1.35;;;;;;;;;;5110436;27;20040;-77
2023/12/28 12:24:49;;;;;;;6.93;1.17;;;;;;;;;;5107006;28;20028;-78
2023/12/28 12:27:18;;;;;;;8.80;1.37;;;;;;;;;;5106233;28;20020;-78
2023/12/28 12:30:09;;;;;;;4.10;1.27;;;;;;;;;;5122375;27;20035;-77
2023/12/28 12:32:42;;;;;;;6.87;1.20;;;;;;;;;;5109401;28;20050;-77
2023/12/28 12:35:21;;;;;;;7.37;1.60;;;;;;;;;;5110433;27;20028;-77
2023/12/28 12:38:02;;;;;;;;;;;;;;;;;;;;;
2023/12/28 12:40:29;;;;;;;6.23;1.27;;;;;;;;;;5105050;28;20048;-77
2023/12/28 12:43:01;;;;;;;5.87;1.03;;;;;;;;;;5111445;28;20058;-77
2023/12/28 12:45:30;;;;;;;7.32;1.50;;;;;;;;;;5108644;27;20032;-77
2023/12/28 12:48:15;;;;;;;7.17;1.37;;;;;;;;;;5112288;27;20051;-77
2023/12/28 12:50:47;;;;;;;4.23;1.10;;;;;;;;;;5109605;27;20023;-77
2023/12/28 12:53:13;;;;;;;11.43;1.63;;;;;;;;;;5112802;27;20061;-77
2023/12/28 12:55:46;;;;;;;11.23;1.60;;;;;;;;;;5113525;27;20019;-77
2023/12/28 12:58:23;;;;;;;8.37;1.53;;;;;;;;;;5109782;27;20173;-77
2023/12/28 13:00:52;;;;;;;4.70;1.30;;;;;;;;;;5112913;28;20062;-77
2023/12/28 13:03:26;;;;;;;6.03;1.00;;;;;;;;;;5113506;28;20023;-78
2023/12/28 13:05:56;;;;;;;4.87;1.20;;;;;;;;;;5111524;27;20020;-77
2023/12/28 13:08:30;;;;;;;6.83;1.43;;;;;;;;;;5114622;27;20016;-78
2023/12/28 13:10:59;;;;;;;5.33;1.23;;;;;;;;;;5109640;27;20020;-78
2023/12/28 13:13:25;;;;;;;6.33;2.10;;;;;;;;;;5112475;27;20039;-78
2023/12/28 13:15:54;;;;;;;5.63;1.20;;;;;;;;;;5179527;22;20048;-78
2023/12/28 13:18:25;;;;;;;5.93;1.40;;;;;;;;;;5090625;28;20043;-77
2023/12/28 13:21:03;;;;;;;;;;;;;;;;;;;;;
2023/12/28 13:23:34;;;;;;;7.50;1.23;;;;;;;;;;5092173;28;20048;-77
2023/12/28 13:26:08;;;;;;;7.60;1.23;;;;;;;;;;5092008;28;20027;-78
2023/12/28 13:28:56;;;;;;;6.20;1.50;;;;;;;;;;5083749;28;20028;-76
2023/12/28 13:31:26;;;;;;;5.13;1.37;;;;;;;;;;5090781;28;20043;-77
2023/12/28 13:33:54;;;;;;;12.77;1.92;;;;;;;;;;5090450;28;20074;-78
2023/12/28 13:36:30;;;;;;;;;;;;;;;;;;;;;
2023/12/28 13:39:11;;;;;;;9.77;1.80;;;;;;;;;;5091230;28;20040;-76
2023/12/28 13:41:57;;;;;;;4.90;1.10;;;;;;;;;;5082846;28;20074;-78
2023/12/28 13:44:33;;;;;;;7.77;1.70;;;;;;;;;;5090927;28;20021;-78
2023/12/28 13:47:14;;;;;;;7.40;1.27;;;;;;;;;;5090631;28;20033;-78
2023/12/28 13:49:55;;;;;;;;;;;;;;;;;;;;;
2023/12/28 13:52:29;;;;;;;7.13;1.57;;;;;;;;;;5091925;28;20053;-78
2023/12/28 13:54:55;;;;;;;6.50;1.50;;;;;;;;;;5089996;28;20066;-77
2023/12/28 13:57:21;;;;;;;10.03;1.60;;;;;;;;;;5107259;28;20039;-78
2023/12/28 13:59:59;;;;;;;;;;;;;;;;;;;;;
2023/12/28 14:02:40;;;;;;;8.57;1.90;;;;;;;;;;5091672;28;20040;-77
2023/12/28 14:05:11;;;;;;;7.53;1.83;;;;;;;;;;5089868;28;20021;-77
2023/12/28 14:07:42;;;;;;;8.50;1.87;;;;;;;;;;5090501;28;20031;-77
2023/12/28 14:10:18;;;;;;;5.50;1.70;;;;;;;;;;5091240;28;20204;-77
2023/12/28 14:12:47;;;;;;;5.67;1.50;;;;;;;;;;5092277;28;20032;-77
2023/12/28 14:15:16;;;;;;;8.47;1.17;;;;;;;;;;5091101;28;20028;-77
2023/12/28 14:17:44;;;;;;;9.87;1.93;;;;;;;;;;5091368;28;20020;-77
2023/12/28 14:20:33;;;;;;;7.10;1.50;;;;;;;;;;5108573;28;20032;-78
2023/12/28 14:22:59;;;;;;;8.17;1.33;;;;;;;;;;5091352;28;20017;-77
2023/12/28 14:25:28;;;;;;;7.53;1.60;;;;;;;;;;5108149;28;20033;-78
2023/12/28 14:27:56;;;;;;;4.63;1.30;;;;;;;;;;5091873;28;20020;-78
2023/12/28 14:30:28;;;;;;;7.63;1.67;;;;;;;;;;5091205;28;20022;-77
2023/12/28 14:33:04;;;;;;;5.63;2.13;;;;;;;;;;5091821;28;20021;-77
2023/12/28 14:35:41;;;;;;;4.77;1.30;;;;;;;;;;5092703;28;20013;-78
2023/12/28 14:38:10;;;;;;;4.97;1.60;;;;;;;;;;5091978;28;20021;-78
2023/12/28 14:40:39;;;;;;;6.50;1.50;;;;;;;;;;5087353;28;20021;-77
2023/12/28 14:43:14;;;;;;;6.73;1.90;;;;;;;;;;5111161;28;20066;-78
2023/12/28 14:46:10;;;;;;;6.27;2.07;;;;;;;;;;5092610;28;20036;-77
2023/12/28 14:48:53;;;;;;;5.23;1.40;;;;;;;;;;5095388;28;20046;-77
2023/12/28 14:51:27;;;;;;;7.23;1.37;;;;;;;;;;5110266;28;20092;-78
2023/12/28 14:53:54;;;;;;;8.70;2.23;;;;;;;;;;5094660;28;20080;-77
2023/12/28 14:56:22;;;;;;;7.47;1.30;;;;;;;;;;5096625;28;20233;-78
2023/12/28 14:58:54;;;;;;;10.77;1.90;;;;;;;;;;5108106;28;20047;-78
2023/12/28 15:01:20;;;;;;;12.65;1.63;;;;;;;;;;5097192;28;20023;-77
2023/12/28 15:03:46;;;;;;;4.60;1.63;;;;;;;;;;5090962;28;20021;-78
2023/12/28 15:09:21;;;;;;;13.10;1.47;;;;;;;;;;5095184;28;20021;-77
2023/12/28 15:11:50;;;;;;;10.43;2.20;;;;;;;;;;5095127;28;20055;-77
2023/12/28 15:14:27;;;;;;;8.63;1.67;;;;;;;;;;5094744;28;20012;-78
2023/12/28 15:16:56;;;;;;;6.70;1.40;;;;;;;;;;5094718;28;20079;-78
2023/12/28 15:19:43;;;;;;;7.03;1.70;;;;;;;;;;5093750;28;20036;-77
2023/12/28 15:22:22;;;;;;;5.40;1.30;;;;;;;;;;5095700;28;20036;-77
2023/12/28 15:24:57;;;;;;;13.93;1.77;;;;;;;;;;5088934;28;20062;-77
2023/12/28 15:27:28;;;;;;;6.77;1.47;;;;;;;;;;5087833;28;20020;-77
2023/12/28 15:30:02;;;;;;;9.70;2.07;;;;;;;;;;5089651;28;20067;-77
2023/12/28 15:32:28;;;;;;;14.60;1.90;;;;;;;;;;5090185;28;20051;-78
2023/12/28 15:35:05;;;;;;;8.10;1.70;;;;;;;;;;5095293;28;20143;-78
2023/12/28 15:37:36;;;;;;;5.07;1.37;;;;;;;;;;5094224;28;20021;-77
2023/12/28 15:40:04;;;;;;;8.53;2.50;;;;;;;;;;5089441;28;20055;-77
2023/12/28 15:42:33;;;;;;;5.80;2.00;;;;;;;;;;5094035;28;20036;-78
2023/12/28 15:45:01;;;;;;;5.27;1.60;;;;;;;;;;5094773;28;20070;-77
2023/12/28 15:47:30;;;;;;;4.87;1.30;;;;;;;;;;5095803;28;20115;-77
2023/12/28 15:50:04;;;;;;;4.73;1.20;;;;;;;;;;5093448;28;20008;-77
2023/12/28 15:52:33;;;;;;;6.67;1.40;;;;;;;;;;5094863;28;20252;-77
2023/12/28 15:55:01;;;;;;;8.13;1.20;;;;;;;;;;5093371;28;20020;-78
2023/12/28 15:57:37;;;;;;;;;;;;;;;;;;;;;
2023/12/28 16:00:06;;;;;;;7.13;1.67;;;;;;;;;;5092950;28;20040;-77
2023/12/28 16:02:37;;;;;;;6.23;1.30;;;;;;;;;;5095263;28;20027;-77
2023/12/28 16:05:03;;;;;;;12.53;1.90;;;;;;;;;;5094146;28;20075;-77
2023/12/28 16:07:37;;;;;;;9.23;1.23;;;;;;;;;;5093788;28;20017;-77
2023/12/28 16:10:03;;;;;;;6.27;1.40;;;;;;;;;;5109710;28;20009;-77
2023/12/28 16:12:39;;;;;;;;;;;;;;;;;;;;;
2023/12/28 16:15:28;;;;;;;13.20;1.77;;;;;;;;;;5094764;28;20055;-77
2023/12/28 16:18:10;;;;;;;8.63;1.40;;;;;;;;;;5086699;28;20025;-78
2023/12/28 16:20:39;;;;;;;6.55;1.67;;;;;;;;;;5089801;28;20025;-77
2023/12/28 16:23:05;;;;;;;8.40;1.63;;;;;;;;;;5091835;28;20052;-77
2023/12/28 16:25:52;;;;;;;6.20;1.37;;;;;;;;;;5092563;28;20040;-77
2023/12/28 16:28:20;;;;;;;5.00;1.20;;;;;;;;;;5092277;28;21362;-77
2023/12/28 16:31:18;;;;;;;5.57;1.30;;;;;;;;;;5093188;28;20024;-77
2023/12/28 16:33:44;;;;;;;5.43;1.50;;;;;;;;;;5092094;28;20009;-78
2023/12/28 16:36:20;;;;;;;9.60;1.80;;;;;;;;;;5093036;28;20024;-78
2023/12/28 16:38:51;;;;;;;8.63;1.40;;;;;;;;;;5087593;28;20033;-77
2023/12/28 16:41:22;;;;;;;4.37;1.03;;;;;;;;;;5110305;28;20033;-77
2023/12/28 16:43:52;;;;;;;5.57;1.30;;;;;;;;;;5145294;22;20012;-77
2023/12/28 16:46:20;;;;;;;4.13;1.17;;;;;;;;;;5082237;28;20026;-77
2023/12/28 16:48:46;;;;;;;3.67;1.13;;;;;;;;;;5076026;28;20002;-77
2023/12/28 16:51:15;;;;;;;5.87;1.63;;;;;;;;;;5095847;28;20016;-77
2023/12/28 16:53:47;;;;;;;5.57;1.40;;;;;;;;;;5077927;28;20005;-77
2023/12/28 16:56:22;;;;;;;3.38;1.25;;;;;;;;;;5079050;28;20027;-76
2023/12/28 16:58:56;;;;;;;3.17;1.07;;;;;;;;;;5084764;28;20028;-77
2023/12/28 17:01:22;;;;;;;2.77;1.17;;;;;;;;;;5072296;28;20072;-77
2023/12/28 17:03:55;;;;;;;2.70;1.00;;;;;;;;;;5081184;28;20335;-78
2023/12/28 17:06:26;;;;;;;2.47;0.67;;;;;;;;;;5084884;28;20013;-78
2023/12/28 17:09:02;;;;;;;7.87;1.80;;;;;;;;;;5069931;28;20005;-78
2023/12/28 17:11:34;;;;;;;8.27;0.80;;;;;;;;;;5080118;28;20008;-77
2023/12/28 17:14:02;;;;;;;3.25;0.80;;;;;;;;;;5088154;28;20039;-77
2023/12/28 17:16:36;;;;;;;4.57;1.03;;;;;;;;;;5078764;28;20017;-77
2023/12/28 17:19:05;;;;;;;2.97;0.80;;;;;;;;;;5078136;28;20028;-77
2023/12/28 17:21:36;;;;;;;1.97;1.13;;;;;;;;;;5081281;28;20012;-77
2023/12/28 17:24:32;;;;;;;;;;;;;;;;;;;;;
2023/12/28 17:27:09;;;;;;;1.40;0.80;;;;;;;;;;5097748;28;19993;-77
2023/12/28 17:29:38;;;;;;;5.07;1.33;;;;;;;;;;5079446;28;20005;-77
2023/12/28 17:32:09;;;;;;;2.83;1.10;;;;;;;;;;5081395;28;20016;-77
2023/12/28 17:34:53;;;;;;;3.00;1.00;;;;;;;;;;5081052;28;20012;-77